Liverpool Express — DDSD2 — position and weather

sailwx.info

Track history (hours):
 
Tides and Currents Weather Stations Pressure Air Temp Water Temp Dewpoint Dewpoint Depression Visibility Wind Speed Wind Dir Waves Ship Positions

Liverpool Express

Last reported at 2017-Jan-18 01:34 UTC. Time now 2017-Jan-18 01:43 UTC.
Position N 52°00' E 003°57'.

Length 281 m; draft 11.6 m.

Type: Ship. MMSI: 218025000.

Date/timePositionNaut miles runAvg speedWind from/ knotsBaromVisibWave heightAir tempDewpointWater temp
2017-Jan-18 01:34N 52°00' E 003°57'10 9.7
2017-Jan-18 00:33N 51°59' E 003°41'1615.7
2017-Jan-17 23:33N 51°54' E 003°17'1615.7
2017-Jan-17 22:33N 51°49' E 002°53'1615.5
2017-Jan-17 21:33N 51°41' E 002°31'1615.9
2017-Jan-17 20:33N 51°30' E 002°14'1616.0
2017-Jan-17 19:33N 51°18' E 001°56'1615.7
2017-Jan-17 18:33N 51°06' E 001°41'1615.9
2017-Jan-17 17:33N 50°52' E 001°27'1616.1
2017-Jan-17 16:33N 50°39' E 001°14'1716.2
2017-Jan-17 15:31N 50°29' E 000°52'2416.2
2017-Jan-17 14:04N 50°22' E 000°17'816.3
2017-Jan-17 13:33N 50°20' E 000°04'1616.3
2017-Jan-17 12:33N 50°17' W 000°21'1717.0
2017-Jan-17 11:33N 50°13' W 000°46'1717.4
2017-Jan-17 10:34N 50°07' W 001°12'1717.1
2017-Jan-17 09:34N 50°03' W 001°38'1716.8
2017-Jan-17 08:33N 49°58' W 002°03'5016.6
2017-Jan-17 05:33N 49°47' W 003°18'1816.4
2017-Jan-17 04:29N 49°46' W 003°45'5516.6
2017-Jan-17 01:10N 49°41' W 005°11'1216.2
2017-Jan-17 00:26N 49°40' W 005°29'3816.4
2017-Jan-16 22:07N 49°38' W 006°27'2616.5
2017-Jan-16 20:32N 49°33' W 007°07'  
2017-Jan-13 12:00N 37°54' W 039°36'47819.9 110 / 221019.3 5.4 19.516.318.0
2017-Jan-12 12:00N 32°54' W 047°12'20216.9 020 / 161020.510.8 20.014.421.0
2017-Jan-12 00:00N 30°36' W 050°06'52217.4 090 / 221016.710.8 22.017.122.6
2017-Jan-10 18:00N 25°18' W 057°54'54318.1 020 / 211016.1 5.4 18.816.624.4
2017-Jan-09 12:00N 20°12' W 066°00'   070 / 91017.010.8 25.520.326.6
Track history (hours):
 
Tides and Currents Weather Stations Pressure Air Temp Water Temp Dewpoint Dewpoint Depression Visibility Wind Speed Wind Dir Waves Ship Positions

Liverpool Express

Last reported at 2017-Jan-18 01:34 UTC. Time now 2017-Jan-18 01:43 UTC.
Position N 52°00' E 003°57'.

Length 281 m; draft 11.6 m.

Type: Ship. MMSI: 218025000.

Date/timePositionNaut miles runAvg speedWind from/ knotsBaromVisibWave heightAir tempDewpointWater temp
2017-Jan-18 01:34N 52°00' E 003°57'10 9.7
2017-Jan-18 00:33N 51°59' E 003°41'1615.7
2017-Jan-17 23:33N 51°54' E 003°17'1615.7
2017-Jan-17 22:33N 51°49' E 002°53'1615.5
2017-Jan-17 21:33N 51°41' E 002°31'1615.9
2017-Jan-17 20:33N 51°30' E 002°14'1616.0
2017-Jan-17 19:33N 51°18' E 001°56'1615.7
2017-Jan-17 18:33N 51°06' E 001°41'1615.9
2017-Jan-17 17:33N 50°52' E 001°27'1616.1
2017-Jan-17 16:33N 50°39' E 001°14'1716.2
2017-Jan-17 15:31N 50°29' E 000°52'2416.2
2017-Jan-17 14:04N 50°22' E 000°17'816.3
2017-Jan-17 13:33N 50°20' E 000°04'1616.3
2017-Jan-17 12:33N 50°17' W 000°21'1717.0
2017-Jan-17 11:33N 50°13' W 000°46'1717.4
2017-Jan-17 10:34N 50°07' W 001°12'1717.1
2017-Jan-17 09:34N 50°03' W 001°38'1716.8
2017-Jan-17 08:33N 49°58' W 002°03'5016.6
2017-Jan-17 05:33N 49°47' W 003°18'1816.4
2017-Jan-17 04:29N 49°46' W 003°45'5516.6
2017-Jan-17 01:10N 49°41' W 005°11'1216.2
2017-Jan-17 00:26N 49°40' W 005°29'3816.4
2017-Jan-16 22:07N 49°38' W 006°27'2616.5
2017-Jan-16 20:32N 49°33' W 007°07'  
2017-Jan-13 12:00N 37°54' W 039°36'47819.9 110 / 221019.3 5.4 19.516.318.0
2017-Jan-12 12:00N 32°54' W 047°12'20216.9 020 / 161020.510.8 20.014.421.0
2017-Jan-12 00:00N 30°36' W 050°06'52217.4 090 / 221016.710.8 22.017.122.6
2017-Jan-10 18:00N 25°18' W 057°54'54318.1 020 / 211016.1 5.4 18.816.624.4
2017-Jan-09 12:00N 20°12' W 066°00'   070 / 91017.010.8 25.520.326.6

Dump ship's entire track history